sensor_id;sensor_type;location;lat;lon;timestamp;pressure;altitude;pressure_sealevel;temperature;humidity
51299;BME280;37382;45.192;9.790;2023-02-03T04:51:42;102218.94;;;4.01;100.00
51299;BME280;37382;45.192;9.790;2023-02-03T04:54:11;102212.81;;;4.10;100.00
51299;BME280;37382;45.192;9.790;2023-02-03T04:56:40;102214.03;;;4.06;100.00
51299;BME280;37382;45.192;9.790;2023-02-03T04:59:07;102209.28;;;4.21;100.00
51299;BME280;37382;45.192;9.790;2023-02-03T05:01:35;102203.19;;;4.30;100.00
51299;BME280;37382;45.192;9.790;2023-02-03T05:04:02;102189.47;;;4.33;100.00
51299;BME280;37382;45.192;9.790;2023-02-03T05:06:29;102186.19;;;4.30;100.00
51299;BME280;37382;45.192;9.790;2023-02-03T05:08:59;102181.03;;;4.38;100.00
51299;BME280;37382;45.192;9.790;2023-02-03T05:11:28;102179.53;;;4.34;100.00
51299;BME280;37382;45.192;9.790;2023-02-03T05:14:20;102192.13;;;4.10;100.00
51299;BME280;37382;45.192;9.790;2023-02-03T05:16:47;102179.50;;;4.11;100.00
51299;BME280;37382;45.192;9.790;2023-02-03T05:19:15;102175.97;;;4.10;100.00
51299;BME280;37382;45.192;9.790;2023-02-03T05:21:43;102186.38;;;4.15;100.00
51299;BME280;37382;45.192;9.790;2023-02-03T05:24:10;102192.28;;;4.20;100.00
51299;BME280;37382;45.192;9.790;2023-02-03T05:26:38;102192.41;;;4.30;100.00
51299;BME280;37382;45.192;9.790;2023-02-03T05:29:05;102182.34;;;4.21;100.00
51299;BME280;37382;45.192;9.790;2023-02-03T05:31:33;102180.16;;;4.26;100.00
51299;BME280;37382;45.192;9.790;2023-02-03T05:34:02;102175.13;;;4.10;100.00
51299;BME280;37382;45.192;9.790;2023-02-03T05:36:29;102179.63;;;3.98;100.00
51299;BME280;37382;45.192;9.790;2023-02-03T05:38:56;102183.41;;;3.96;100.00
51299;BME280;37382;45.192;9.790;2023-02-03T05:41:23;102186.06;;;3.84;100.00
51299;BME280;37382;45.192;9.790;2023-02-03T05:44:10;102189.84;;;3.70;100.00
51299;BME280;37382;45.192;9.790;2023-02-03T05:46:38;102196.19;;;3.69;100.00
51299;BME280;37382;45.192;9.790;2023-02-03T05:49:05;102204.00;;;3.61;100.00
51299;BME280;37382;45.192;9.790;2023-02-03T05:51:32;102200.06;;;3.65;100.00
51299;BME280;37382;45.192;9.790;2023-02-03T05:54:00;102203.47;;;3.91;100.00
51299;BME280;37382;45.192;9.790;2023-02-03T05:56:27;102208.97;;;3.54;100.00
51299;BME280;37382;45.192;9.790;2023-02-03T05:58:55;102213.34;;;3.44;100.00
51299;BME280;37382;45.192;9.790;2023-02-03T06:01:23;102217.56;;;3.35;100.00
51299;BME280;37382;45.192;9.790;2023-02-03T06:03:50;102218.81;;;3.43;100.00
51299;BME280;37382;45.192;9.790;2023-02-03T06:06:18;102233.34;;;3.40;100.00
51299;BME280;37382;45.192;9.790;2023-02-03T06:08:45;102240.78;;;3.61;100.00
51299;BME280;37382;45.192;9.790;2023-02-03T06:11:13;102239.44;;;3.90;100.00
51299;BME280;37382;45.192;9.790;2023-02-03T06:13:40;102251.00;;;4.04;100.00
51299;BME280;37382;45.192;9.790;2023-02-03T06:16:07;102265.06;;;4.07;100.00
51299;BME280;37382;45.192;9.790;2023-02-03T06:18:35;102267.16;;;4.04;100.00
51299;BME280;37382;45.192;9.790;2023-02-03T06:21:02;102279.41;;;4.08;100.00
51299;BME280;37382;45.192;9.790;2023-02-03T06:23:30;102277.94;;;4.04;100.00
51299;BME280;37382;45.192;9.790;2023-02-03T06:25:57;102260.53;;;4.08;100.00
51299;BME280;37382;45.192;9.790;2023-02-03T06:28:26;102249.75;;;3.97;100.00
51299;BME280;37382;45.192;9.790;2023-02-03T06:30:53;102242.38;;;3.87;100.00
51299;BME280;37382;45.192;9.790;2023-02-03T06:33:21;102242.88;;;3.92;100.00
51299;BME280;37382;45.192;9.790;2023-02-03T06:35:48;102248.41;;;3.67;100.00
51299;BME280;37382;45.192;9.790;2023-02-03T06:38:15;102246.84;;;3.76;100.00
51299;BME280;37382;45.192;9.790;2023-02-03T06:40:47;102235.59;;;3.70;100.00
51299;BME280;37382;45.192;9.790;2023-02-03T06:43:14;102224.41;;;3.64;100.00
51299;BME280;37382;45.192;9.790;2023-02-03T06:45:46;102238.44;;;3.32;100.00
51299;BME280;37382;45.192;9.790;2023-02-03T06:48:14;102264.81;;;3.27;100.00
51299;BME280;37382;45.192;9.790;2023-02-03T06:50:41;102259.63;;;3.61;100.00
51299;BME280;37382;45.192;9.790;2023-02-03T06:53:09;102259.00;;;3.57;100.00
51299;BME280;37382;45.192;9.790;2023-02-03T06:55:36;102258.44;;;3.65;100.00
51299;BME280;37382;45.192;9.790;2023-02-03T06:58:04;102244.69;;;3.56;100.00
51299;BME280;37382;45.192;9.790;2023-02-03T07:00:31;102251.88;;;3.56;100.00
51299;BME280;37382;45.192;9.790;2023-02-03T07:02:59;102259.16;;;3.67;100.00
51299;BME280;37382;45.192;9.790;2023-02-03T07:05:29;102271.41;;;3.71;100.00
51299;BME280;37382;45.192;9.790;2023-02-03T07:07:56;102266.38;;;3.90;100.00
51299;BME280;37382;45.192;9.790;2023-02-03T07:10:25;102280.03;;;3.52;100.00
51299;BME280;37382;45.192;9.790;2023-02-03T07:12:53;102285.06;;;3.56;100.00
51299;BME280;37382;45.192;9.790;2023-02-03T07:15:20;102297.66;;;3.80;100.00
51299;BME280;37382;45.192;9.790;2023-02-03T07:17:48;102322.94;;;4.02;100.00
51299;BME280;37382;45.192;9.790;2023-02-03T07:20:22;102345.53;;;3.88;100.00
51299;BME280;37382;45.192;9.790;2023-02-03T07:22:56;102356.34;;;3.75;100.00
51299;BME280;37382;45.192;9.790;2023-02-03T07:25:25;102355.66;;;3.60;100.00
51299;BME280;37382;45.192;9.790;2023-02-03T07:27:53;102353.53;;;3.52;100.00
51299;BME280;37382;45.192;9.790;2023-02-03T07:30:21;102327.66;;;3.63;100.00
51299;BME280;37382;45.192;9.790;2023-02-03T07:32:49;102324.56;;;3.80;100.00
51299;BME280;37382;45.192;9.790;2023-02-03T07:35:17;102322.63;;;3.82;100.00
51299;BME280;37382;45.192;9.790;2023-02-03T07:37:45;102327.09;;;3.70;100.00
51299;BME280;37382;45.192;9.790;2023-02-03T07:40:13;102333.69;;;3.90;100.00
51299;BME280;37382;45.192;9.790;2023-02-03T07:42:41;102336.28;;;4.03;100.00
51299;BME280;37382;45.192;9.790;2023-02-03T07:45:11;102338.72;;;3.71;100.00
51299;BME280;37382;45.192;9.790;2023-02-03T07:47:39;102348.66;;;3.08;100.00
51299;BME280;37382;45.192;9.790;2023-02-03T07:50:07;102351.41;;;3.32;100.00
51299;BME280;37382;45.192;9.790;2023-02-03T07:52:35;102342.38;;;3.70;100.00
51299;BME280;37382;45.192;9.790;2023-02-03T07:55:03;102341.69;;;3.55;100.00
51299;BME280;37382;45.192;9.790;2023-02-03T07:57:31;102371.50;;;3.39;100.00
51299;BME280;37382;45.192;9.790;2023-02-03T07:59:59;102377.09;;;3.86;100.00
51299;BME280;37382;45.192;9.790;2023-02-03T08:02:26;102371.16;;;3.94;100.00
51299;BME280;37382;45.192;9.790;2023-02-03T08:04:54;102377.69;;;3.65;100.00
51299;BME280;37382;45.192;9.790;2023-02-03T08:07:24;102388.25;;;3.92;100.00
51299;BME280;37382;45.192;9.790;2023-02-03T08:09:51;102386.50;;;4.28;100.00
51299;BME280;37382;45.192;9.790;2023-02-03T08:12:19;102381.13;;;4.40;100.00
51299;BME280;37382;45.192;9.790;2023-02-03T08:14:47;102396.69;;;4.72;100.00
51299;BME280;37382;45.192;9.790;2023-02-03T08:17:14;102403.72;;;4.97;100.00
51299;BME280;37382;45.192;9.790;2023-02-03T08:19:42;102392.66;;;4.89;100.00
51299;BME280;37382;45.192;9.790;2023-02-03T08:22:10;102376.84;;;4.84;100.00
51299;BME280;37382;45.192;9.790;2023-02-03T08:24:47;102373.41;;;4.71;100.00
51299;BME280;37382;45.192;9.790;2023-02-03T08:27:19;102379.22;;;4.53;100.00
51299;BME280;37382;45.192;9.790;2023-02-03T08:29:48;102376.03;;;4.48;100.00
51299;BME280;37382;45.192;9.790;2023-02-03T08:32:17;102375.63;;;4.88;100.00
51299;BME280;37382;45.192;9.790;2023-02-03T08:34:46;102378.59;;;4.96;100.00
51299;BME280;37382;45.192;9.790;2023-02-03T08:37:15;102370.53;;;4.96;100.00
51299;BME280;37382;45.192;9.790;2023-02-03T08:39:44;102356.19;;;5.30;100.00
51299;BME280;37382;45.192;9.790;2023-02-03T08:42:12;102354.66;;;5.60;100.00
51299;BME280;37382;45.192;9.790;2023-02-03T08:44:39;102354.03;;;5.79;100.00
51299;BME280;37382;45.192;9.790;2023-02-03T08:47:07;102362.63;;;5.61;100.00
51299;BME280;37382;45.192;9.790;2023-02-03T08:49:34;102360.44;;;5.66;100.00
51299;BME280;37382;45.192;9.790;2023-02-03T08:52:07;102356.47;;;5.70;100.00
51299;BME280;37382;45.192;9.790;2023-02-03T08:54:36;102353.06;;;5.57;100.00
51299;BME280;37382;45.192;9.790;2023-02-03T08:57:04;102361.06;;;5.47;100.00
51299;BME280;37382;45.192;9.790;2023-02-03T08:59:32;102355.25;;;5.63;100.00
51299;BME280;37382;45.192;9.790;2023-02-03T09:02:03;102359.19;;;5.82;100.00
51299;BME280;37382;45.192;9.790;2023-02-03T09:04:32;102366.69;;;5.67;100.00
51299;BME280;37382;45.192;9.790;2023-02-03T09:07:00;102365.34;;;5.73;100.00
51299;BME280;37382;45.192;9.790;2023-02-03T09:09:30;102377.81;;;5.85;100.00
51299;BME280;37382;45.192;9.790;2023-02-03T09:11:58;102368.72;;;5.86;100.00
51299;BME280;37382;45.192;9.790;2023-02-03T09:14:31;102369.19;;;6.02;100.00
51299;BME280;37382;45.192;9.790;2023-02-03T09:17:01;102368.03;;;5.61;100.00
51299;BME280;37382;45.192;9.790;2023-02-03T09:19:30;102375.03;;;5.52;100.00
51299;BME280;37382;45.192;9.790;2023-02-03T09:22:00;102386.94;;;5.73;100.00
51299;BME280;37382;45.192;9.790;2023-02-03T09:24:27;102376.97;;;6.28;100.00
51299;BME280;37382;45.192;9.790;2023-02-03T09:26:55;102375.00;;;5.75;100.00
51299;BME280;37382;45.192;9.790;2023-02-03T09:29:23;102371.91;;;6.02;100.00
51299;BME280;37382;45.192;9.790;2023-02-03T09:31:51;102362.56;;;6.07;100.00
51299;BME280;37382;45.192;9.790;2023-02-03T09:34:20;102372.59;;;6.16;100.00
51299;BME280;37382;45.192;9.790;2023-02-03T09:36:48;102370.41;;;6.10;100.00
51299;BME280;37382;45.192;9.790;2023-02-03T09:39:16;102372.66;;;6.58;100.00
51299;BME280;37382;45.192;9.790;2023-02-03T09:47:32;102377.59;;;7.26;100.00
51299;BME280;37382;45.192;9.790;2023-02-03T09:50:04;102377.53;;;7.47;100.00
51299;BME280;37382;45.192;9.790;2023-02-03T09:52:35;102387.47;;;7.77;100.00
51299;BME280;37382;45.192;9.790;2023-02-03T09:55:42;102386.91;;;7.33;100.00
51299;BME280;37382;45.192;9.790;2023-02-03T09:58:16;102380.34;;;7.76;100.00
51299;BME280;37382;45.192;9.790;2023-02-03T10:00:55;102380.28;;;8.07;100.00
51299;BME280;37382;45.192;9.790;2023-02-03T10:03:43;102377.09;;;8.02;100.00
51299;BME280;37382;45.192;9.790;2023-02-03T10:06:43;102388.28;;;8.28;100.00
51299;BME280;37382;45.192;9.790;2023-02-03T10:14:49;102377.28;;;8.79;100.00
51299;BME280;37382;45.192;9.790;2023-02-03T10:22:25;102363.28;;;7.95;100.00
51299;BME280;37382;45.192;9.790;2023-02-03T10:25:01;102362.13;;;8.17;100.00
51299;BME280;37382;45.192;9.790;2023-02-03T10:27:31;102362.16;;;8.57;100.00
51299;BME280;37382;45.192;9.790;2023-02-03T10:30:05;102357.13;;;8.81;100.00
51299;BME280;37382;45.192;9.790;2023-02-03T10:32:40;102350.72;;;8.63;100.00
51299;BME280;37382;45.192;9.790;2023-02-03T10:35:11;102346.00;;;8.65;100.00
51299;BME280;37382;45.192;9.790;2023-02-03T10:37:44;102345.22;;;9.02;100.00
51299;BME280;37382;45.192;9.790;2023-02-03T10:40:15;102332.50;;;9.30;100.00
51299;BME280;37382;45.192;9.790;2023-02-03T10:42:46;102344.88;;;9.15;100.00
51299;BME280;37382;45.192;9.790;2023-02-03T10:45:36;102344.78;;;9.06;100.00
51299;BME280;37382;45.192;9.790;2023-02-03T10:48:10;102343.47;;;9.11;100.00
51299;BME280;37382;45.192;9.790;2023-02-03T10:50:47;102323.06;;;9.34;100.00
51299;BME280;37382;45.192;9.790;2023-02-03T10:53:32;102309.75;;;9.87;100.00
51299;BME280;37382;45.192;9.790;2023-02-03T10:56:04;102305.53;;;9.92;100.00
51299;BME280;37382;45.192;9.790;2023-02-03T10:58:36;102303.91;;;9.82;100.00
51299;BME280;37382;45.192;9.790;2023-02-03T11:01:14;102293.47;;;9.41;100.00
51299;BME280;37382;45.192;9.790;2023-02-03T11:03:54;102312.41;;;9.51;100.00
51299;BME280;37382;45.192;9.790;2023-02-03T11:06:23;102303.59;;;9.85;100.00
51299;BME280;37382;45.192;9.790;2023-02-03T11:08:51;102300.56;;;10.06;100.00
51299;BME280;37382;45.192;9.790;2023-02-03T11:11:22;102309.94;;;8.92;100.00
51299;BME280;37382;45.192;9.790;2023-02-03T11:13:55;102308.22;;;9.01;100.00
51299;BME280;37382;45.192;9.790;2023-02-03T11:16:51;102292.69;;;9.21;100.00
51299;BME280;37382;45.192;9.790;2023-02-03T11:19:33;102295.91;;;9.80;100.00
51299;BME280;37382;45.192;9.790;2023-02-03T11:22:04;102283.56;;;9.86;100.00
51299;BME280;37382;45.192;9.790;2023-02-03T11:24:37;102283.94;;;9.91;100.00
51299;BME280;37382;45.192;9.790;2023-02-03T11:27:09;102284.50;;;9.76;100.00
51299;BME280;37382;45.192;9.790;2023-02-03T11:29:41;102278.44;;;10.01;100.00
51299;BME280;37382;45.192;9.790;2023-02-03T11:32:28;102267.06;;;10.41;100.00
51299;BME280;37382;45.192;9.790;2023-02-03T11:35:01;102267.56;;;10.19;100.00
51299;BME280;37382;45.192;9.790;2023-02-03T11:37:40;102256.44;;;10.56;100.00
51299;BME280;37382;45.192;9.790;2023-02-03T11:42:43;102255.91;;;10.53;100.00
51299;BME280;37382;45.192;9.790;2023-02-03T11:45:12;102241.06;;;10.03;100.00
51299;BME280;37382;45.192;9.790;2023-02-03T11:47:55;102232.06;;;9.84;100.00
51299;BME280;37382;45.192;9.790;2023-02-03T12:09:40;102183.47;;;10.94;100.00
51299;BME280;37382;45.192;9.790;2023-02-03T12:18:01;102164.00;;;11.40;100.00
51299;BME280;37382;45.192;9.790;2023-02-03T12:20:43;102157.00;;;11.29;100.00
51299;BME280;37382;45.192;9.790;2023-02-03T12:23:47;102152.09;;;11.41;100.00
51299;BME280;37382;45.192;9.790;2023-02-03T12:26:22;102144.25;;;11.46;100.00
51299;BME280;37382;45.192;9.790;2023-02-03T12:29:04;102135.78;;;11.74;100.00
51299;BME280;37382;45.192;9.790;2023-02-03T12:34:34;102134.06;;;11.56;100.00
51299;BME280;37382;45.192;9.790;2023-02-03T12:37:08;102125.97;;;10.89;100.00
51299;BME280;37382;45.192;9.790;2023-02-03T12:39:43;102108.56;;;10.82;100.00
51299;BME280;37382;45.192;9.790;2023-02-03T12:45:02;102096.72;;;11.08;100.00
51299;BME280;37382;45.192;9.790;2023-02-03T12:47:55;102093.13;;;10.91;100.00
51299;BME280;37382;45.192;9.790;2023-02-03T12:50:30;102081.06;;;11.26;100.00
51299;BME280;37382;45.192;9.790;2023-02-03T12:53:18;102081.50;;;10.72;100.00
51299;BME280;37382;45.192;9.790;2023-02-03T12:55:55;102068.81;;;11.38;100.00
51299;BME280;37382;45.192;9.790;2023-02-03T12:58:30;102051.91;;;11.92;100.00
51299;BME280;37382;45.192;9.790;2023-02-03T13:01:55;102050.09;;;11.44;100.00
51299;BME280;37382;45.192;9.790;2023-02-03T13:06:52;102027.25;;;11.61;100.00
51299;BME280;37382;45.192;9.790;2023-02-03T13:09:30;102033.22;;;11.56;100.00
51299;BME280;37382;45.192;9.790;2023-02-03T13:17:17;102013.88;;;12.70;100.00
51299;BME280;37382;45.192;9.790;2023-02-03T13:19:52;102023.53;;;11.46;100.00
51299;BME280;37382;45.192;9.790;2023-02-03T13:22:22;102017.97;;;11.87;100.00
51299;BME280;37382;45.192;9.790;2023-02-03T13:25:06;102017.31;;;11.93;100.00
51299;BME280;37382;45.192;9.790;2023-02-03T13:27:55;102007.56;;;11.90;100.00
51299;BME280;37382;45.192;9.790;2023-02-03T13:33:35;102001.44;;;11.88;100.00
51299;BME280;37382;45.192;9.790;2023-02-03T13:36:21;101986.13;;;12.35;100.00
51299;BME280;37382;45.192;9.790;2023-02-03T13:41:48;101986.06;;;12.04;100.00
51299;BME280;37382;45.192;9.790;2023-02-03T13:44:20;101987.03;;;11.71;100.00
51299;BME280;37382;45.192;9.790;2023-02-03T13:46:49;101988.16;;;11.85;100.00
51299;BME280;37382;45.192;9.790;2023-02-03T13:49:27;101995.50;;;11.77;100.00
51299;BME280;37382;45.192;9.790;2023-02-03T13:51:56;101982.25;;;12.21;100.00
51299;BME280;37382;45.192;9.790;2023-02-03T13:54:37;101978.06;;;12.10;100.00
51299;BME280;37382;45.192;9.790;2023-02-03T13:57:30;101961.53;;;12.04;100.00
51299;BME280;37382;45.192;9.790;2023-02-03T14:00:03;101956.66;;;12.22;100.00
51299;BME280;37382;45.192;9.790;2023-02-03T14:02:42;101958.97;;;12.02;100.00
51299;BME280;37382;45.192;9.790;2023-02-03T14:05:38;101962.84;;;12.48;100.00
51299;BME280;37382;45.192;9.790;2023-02-03T14:19:11;101950.72;;;12.19;100.00
51299;BME280;37382;45.192;9.790;2023-02-03T14:21:51;101942.91;;;12.16;100.00
51299;BME280;37382;45.192;9.790;2023-02-03T14:24:21;101942.25;;;12.14;100.00
51299;BME280;37382;45.192;9.790;2023-02-03T14:26:51;101937.31;;;12.09;100.00
51299;BME280;37382;45.192;9.790;2023-02-03T14:29:26;101934.25;;;12.04;100.00
51299;BME280;37382;45.192;9.790;2023-02-03T14:37:28;101935.84;;;12.76;100.00
51299;BME280;37382;45.192;9.790;2023-02-03T14:40:08;101932.19;;;12.60;100.00
51299;BME280;37382;45.192;9.790;2023-02-03T14:48:24;101927.19;;;13.10;100.00
51299;BME280;37382;45.192;9.790;2023-02-03T14:51:06;101929.78;;;12.89;100.00
51299;BME280;37382;45.192;9.790;2023-02-03T14:53:46;101919.34;;;13.07;100.00
51299;BME280;37382;45.192;9.790;2023-02-03T14:59:01;101914.03;;;12.91;100.00
51299;BME280;37382;45.192;9.790;2023-02-03T15:06:46;101917.41;;;13.16;100.00
51299;BME280;37382;45.192;9.790;2023-02-03T15:09:35;101904.34;;;13.56;100.00
51299;BME280;37382;45.192;9.790;2023-02-03T15:12:25;101909.63;;;13.05;100.00
51299;BME280;37382;45.192;9.790;2023-02-03T15:15:11;101916.22;;;13.63;100.00
51299;BME280;37382;45.192;9.790;2023-02-03T15:17:39;101905.63;;;13.30;100.00
51299;BME280;37382;45.192;9.790;2023-02-03T15:20:31;101905.22;;;13.04;100.00
51299;BME280;37382;45.192;9.790;2023-02-03T15:23:01;101914.25;;;13.04;100.00
51299;BME280;37382;45.192;9.790;2023-02-03T15:25:30;101899.56;;;13.05;100.00
51299;BME280;37382;45.192;9.790;2023-02-03T15:28:16;101898.91;;;13.03;100.00
51299;BME280;37382;45.192;9.790;2023-02-03T15:30:48;101901.38;;;13.13;100.00
51299;BME280;37382;45.192;9.790;2023-02-03T15:33:18;101894.50;;;13.02;100.00
51299;BME280;37382;45.192;9.790;2023-02-03T15:35:52;101893.66;;;12.78;100.00
51299;BME280;37382;45.192;9.790;2023-02-03T15:38:44;101887.19;;;12.79;100.00
51299;BME280;37382;45.192;9.790;2023-02-03T15:41:21;101878.84;;;12.58;100.00
51299;BME280;37382;45.192;9.790;2023-02-03T15:43:57;101883.88;;;12.46;100.00
51299;BME280;37382;45.192;9.790;2023-02-03T15:46:36;101892.78;;;12.40;100.00
51299;BME280;37382;45.192;9.790;2023-02-03T15:49:11;101892.78;;;12.17;100.00
51299;BME280;37382;45.192;9.790;2023-02-03T15:51:45;101887.63;;;11.82;100.00
51299;BME280;37382;45.192;9.790;2023-02-03T15:54:21;101886.88;;;12.05;100.00
51299;BME280;37382;45.192;9.790;2023-02-03T15:56:59;101889.16;;;11.85;100.00
51299;BME280;37382;45.192;9.790;2023-02-03T15:59:39;101893.50;;;11.71;100.00
51299;BME280;37382;45.192;9.790;2023-02-03T16:02:21;101897.00;;;11.80;100.00
51299;BME280;37382;45.192;9.790;2023-02-03T16:04:49;101888.47;;;11.83;100.00
51299;BME280;37382;45.192;9.790;2023-02-03T16:07:20;101881.19;;;11.75;100.00
51299;BME280;37382;45.192;9.790;2023-02-03T16:09:54;101867.03;;;11.80;100.00
51299;BME280;37382;45.192;9.790;2023-02-03T16:12:27;101864.25;;;11.56;100.00
51299;BME280;37382;45.192;9.790;2023-02-03T16:14:57;101852.59;;;11.31;100.00
51299;BME280;37382;45.192;9.790;2023-02-03T16:17:36;101871.09;;;10.63;100.00
51299;BME280;37382;45.192;9.790;2023-02-03T16:22:42;101860.03;;;10.81;100.00
51299;BME280;37382;45.192;9.790;2023-02-03T16:30:57;101870.22;;;10.79;100.00
51299;BME280;37382;45.192;9.790;2023-02-03T16:33:45;101878.03;;;10.58;100.00
51299;BME280;37382;45.192;9.790;2023-02-03T16:36:32;101873.09;;;10.37;100.00
51299;BME280;37382;45.192;9.790;2023-02-03T16:39:18;101868.22;;;9.81;100.00
51299;BME280;37382;45.192;9.790;2023-02-03T16:42:15;101883.22;;;9.59;100.00
51299;BME280;37382;45.192;9.790;2023-02-03T16:45:11;101871.69;;;9.57;100.00
51299;BME280;37382;45.192;9.790;2023-02-03T16:47:58;101877.13;;;9.57;100.00
51299;BME280;37382;45.192;9.790;2023-02-03T16:50:44;101881.41;;;9.68;100.00
51299;BME280;37382;45.192;9.790;2023-02-03T16:53:28;101887.91;;;9.83;100.00
51299;BME280;37382;45.192;9.790;2023-02-03T16:56:01;101899.00;;;9.55;100.00
51299;BME280;37382;45.192;9.790;2023-02-03T16:58:30;101902.22;;;9.51;100.00
51299;BME280;37382;45.192;9.790;2023-02-03T17:01:00;101896.09;;;9.22;100.00
51299;BME280;37382;45.192;9.790;2023-02-03T17:03:29;101893.81;;;9.36;100.00
51299;BME280;37382;45.192;9.790;2023-02-03T17:06:09;101896.19;;;9.04;100.00
51299;BME280;37382;45.192;9.790;2023-02-03T17:08:38;101897.94;;;9.14;100.00
51299;BME280;37382;45.192;9.790;2023-02-03T17:11:13;101885.94;;;8.98;100.00
51299;BME280;37382;45.192;9.790;2023-02-03T17:13:42;101873.31;;;8.89;100.00
51299;BME280;37382;45.192;9.790;2023-02-03T17:16:13;101872.13;;;8.83;100.00
51299;BME280;37382;45.192;9.790;2023-02-03T17:18:41;101868.44;;;8.66;100.00
51299;BME280;37382;45.192;9.790;2023-02-03T17:21:12;101876.66;;;8.57;100.00
51299;BME280;37382;45.192;9.790;2023-02-03T17:23:41;101886.41;;;8.67;100.00
51299;BME280;37382;45.192;9.790;2023-02-03T17:26:08;101880.75;;;8.79;100.00
51299;BME280;37382;45.192;9.790;2023-02-03T17:28:38;101881.63;;;8.87;100.00
51299;BME280;37382;45.192;9.790;2023-02-03T17:31:06;101869.72;;;8.80;100.00
51299;BME280;37382;45.192;9.790;2023-02-03T17:33:34;101874.25;;;8.53;100.00
51299;BME280;37382;45.192;9.790;2023-02-03T17:36:05;101866.06;;;8.45;100.00
51299;BME280;37382;45.192;9.790;2023-02-03T17:38:38;101875.63;;;8.22;100.00
51299;BME280;37382;45.192;9.790;2023-02-03T17:41:25;101883.22;;;8.36;100.00
51299;BME280;37382;45.192;9.790;2023-02-03T17:44:11;101881.75;;;8.06;100.00
51299;BME280;37382;45.192;9.790;2023-02-03T17:46:56;101886.97;;;7.89;100.00
51299;BME280;37382;45.192;9.790;2023-02-03T17:49:41;101891.69;;;8.05;100.00
51299;BME280;37382;45.192;9.790;2023-02-03T17:52:27;101879.47;;;8.19;100.00
51299;BME280;37382;45.192;9.790;2023-02-03T17:55:12;101884.00;;;8.28;100.00
51299;BME280;37382;45.192;9.790;2023-02-03T17:57:40;101882.75;;;8.23;100.00
51299;BME280;37382;45.192;9.790;2023-02-03T18:00:08;101875.91;;;8.18;100.00
51299;BME280;37382;45.192;9.790;2023-02-03T18:02:39;101871.44;;;8.09;100.00
51299;BME280;37382;45.192;9.790;2023-02-03T18:05:09;101874.84;;;7.93;100.00
51299;BME280;37382;45.192;9.790;2023-02-03T18:07:37;101868.81;;;7.99;100.00
51299;BME280;37382;45.192;9.790;2023-02-03T18:10:04;101874.41;;;7.88;100.00
51299;BME280;37382;45.192;9.790;2023-02-03T18:12:32;101879.69;;;7.90;100.00
51299;BME280;37382;45.192;9.790;2023-02-03T18:14:59;101872.16;;;7.83;100.00
51299;BME280;37382;45.192;9.790;2023-02-03T18:17:27;101888.59;;;7.44;100.00
51299;BME280;37382;45.192;9.790;2023-02-03T18:19:54;101897.97;;;7.60;100.00
51299;BME280;37382;45.192;9.790;2023-02-03T18:22:23;101883.75;;;7.48;100.00
51299;BME280;37382;45.192;9.790;2023-02-03T18:24:51;101885.41;;;7.31;100.00
51299;BME280;37382;45.192;9.790;2023-02-03T18:27:18;101879.78;;;7.42;100.00
51299;BME280;37382;45.192;9.790;2023-02-03T18:29:47;101875.50;;;7.40;100.00
51299;BME280;37382;45.192;9.790;2023-02-03T18:32:15;101886.50;;;7.01;100.00
51299;BME280;37382;45.192;9.790;2023-02-03T18:34:42;101876.72;;;7.27;100.00
51299;BME280;37382;45.192;9.790;2023-02-03T18:37:10;101891.47;;;7.05;100.00
51299;BME280;37382;45.192;9.790;2023-02-03T18:39:38;101890.44;;;7.16;100.00
51299;BME280;37382;45.192;9.790;2023-02-03T18:42:05;101881.72;;;7.12;100.00
51299;BME280;37382;45.192;9.790;2023-02-03T18:44:33;101880.38;;;7.36;100.00
51299;BME280;37382;45.192;9.790;2023-02-03T18:47:00;101876.25;;;7.42;100.00
51299;BME280;37382;45.192;9.790;2023-02-03T18:49:37;101865.34;;;7.24;100.00
51299;BME280;37382;45.192;9.790;2023-02-03T18:52:05;101865.25;;;7.43;100.00
51299;BME280;37382;45.192;9.790;2023-02-03T18:54:33;101866.50;;;7.49;100.00
51299;BME280;37382;45.192;9.790;2023-02-03T18:57:00;101865.25;;;7.43;100.00
51299;BME280;37382;45.192;9.790;2023-02-03T18:59:29;101859.66;;;7.17;100.00
51299;BME280;37382;45.192;9.790;2023-02-03T19:01:57;101862.03;;;7.30;100.00
51299;BME280;37382;45.192;9.790;2023-02-03T19:04:24;101864.50;;;7.23;100.00
51299;BME280;37382;45.192;9.790;2023-02-03T19:06:52;101862.19;;;7.28;100.00
51299;BME280;37382;45.192;9.790;2023-02-03T19:09:19;101866.72;;;6.90;100.00
51299;BME280;37382;45.192;9.790;2023-02-03T19:11:49;101872.97;;;6.91;100.00
51299;BME280;37382;45.192;9.790;2023-02-03T19:14:17;101873.69;;;7.30;100.00
51299;BME280;37382;45.192;9.790;2023-02-03T19:16:45;101873.41;;;6.86;100.00
51299;BME280;37382;45.192;9.790;2023-02-03T19:19:16;101880.38;;;6.89;100.00
51299;BME280;37382;45.192;9.790;2023-02-03T19:21:44;101881.22;;;6.99;100.00
51299;BME280;37382;45.192;9.790;2023-02-03T19:24:14;101871.88;;;6.84;100.00
51299;BME280;37382;45.192;9.790;2023-02-03T19:26:41;101881.06;;;6.91;100.00
51299;BME280;37382;45.192;9.790;2023-02-03T19:29:09;101872.53;;;7.05;100.00
51299;BME280;37382;45.192;9.790;2023-02-03T19:31:36;101862.91;;;7.21;100.00
51299;BME280;37382;45.192;9.790;2023-02-03T19:34:04;101849.63;;;7.27;100.00
51299;BME280;37382;45.192;9.790;2023-02-03T19:36:32;101846.84;;;7.09;100.00
51299;BME280;37382;45.192;9.790;2023-02-03T19:38:59;101843.78;;;6.94;100.00
51299;BME280;37382;45.192;9.790;2023-02-03T19:41:27;101841.94;;;6.95;100.00
51299;BME280;37382;45.192;9.790;2023-02-03T19:43:56;101854.72;;;7.03;100.00
51299;BME280;37382;45.192;9.790;2023-02-03T19:46:25;101839.22;;;6.95;100.00
51299;BME280;37382;45.192;9.790;2023-02-03T19:48:53;101839.59;;;7.10;100.00